sensor_id;sensor_type;location;lat;lon;timestamp;temperature;humidity
52513;DHT22;38422;53.172;6.974;2023-02-28T00:01:20;5.00;99.90
52513;DHT22;38422;53.172;6.974;2023-02-28T00:03:46;4.90;99.90
52513;DHT22;38422;53.172;6.974;2023-02-28T00:06:12;4.90;99.90
52513;DHT22;38422;53.172;6.974;2023-02-28T00:08:38;4.90;99.90
52513;DHT22;38422;53.172;6.974;2023-02-28T00:11:10;4.90;99.90
52513;DHT22;38422;53.172;6.974;2023-02-28T00:13:38;4.90;99.90
52513;DHT22;38422;53.172;6.974;2023-02-28T00:16:06;4.90;99.90
52513;DHT22;38422;53.172;6.974;2023-02-28T00:18:32;4.90;99.90
52513;DHT22;38422;53.172;6.974;2023-02-28T00:20:58;4.90;99.90
52513;DHT22;38422;53.172;6.974;2023-02-28T00:23:25;4.90;99.90
52513;DHT22;38422;53.172;6.974;2023-02-28T00:25:52;4.90;99.90
52513;DHT22;38422;53.172;6.974;2023-02-28T00:28:18;4.90;99.90
52513;DHT22;38422;53.172;6.974;2023-02-28T00:30:44;4.90;99.90
52513;DHT22;38422;53.172;6.974;2023-02-28T00:33:09;4.90;99.90
52513;DHT22;38422;53.172;6.974;2023-02-28T00:35:35;4.90;99.90
52513;DHT22;38422;53.172;6.974;2023-02-28T00:38:01;4.80;99.90
52513;DHT22;38422;53.172;6.974;2023-02-28T00:40:28;4.80;99.90
52513;DHT22;38422;53.172;6.974;2023-02-28T00:42:53;4.80;99.90
52513;DHT22;38422;53.172;6.974;2023-02-28T00:45:19;4.80;99.90
52513;DHT22;38422;53.172;6.974;2023-02-28T00:47:47;4.80;99.90
52513;DHT22;38422;53.172;6.974;2023-02-28T00:50:17;4.80;99.90
52513;DHT22;38422;53.172;6.974;2023-02-28T00:52:44;4.80;99.90
52513;DHT22;38422;53.172;6.974;2023-02-28T00:55:10;4.80;99.90
52513;DHT22;38422;53.172;6.974;2023-02-28T00:57:35;4.80;99.90
52513;DHT22;38422;53.172;6.974;2023-02-28T01:00:02;4.80;99.90
52513;DHT22;38422;53.172;6.974;2023-02-28T01:02:28;4.80;99.90
52513;DHT22;38422;53.172;6.974;2023-02-28T01:04:53;4.80;99.90
52513;DHT22;38422;53.172;6.974;2023-02-28T01:07:19;4.80;99.90
52513;DHT22;38422;53.172;6.974;2023-02-28T01:09:45;4.80;99.90
52513;DHT22;38422;53.172;6.974;2023-02-28T01:12:10;4.80;99.90
52513;DHT22;38422;53.172;6.974;2023-02-28T01:14:36;4.90;99.90
52513;DHT22;38422;53.172;6.974;2023-02-28T01:17:02;4.90;99.90
52513;DHT22;38422;53.172;6.974;2023-02-28T01:19:27;4.90;99.90
52513;DHT22;38422;53.172;6.974;2023-02-28T01:21:53;4.90;99.90
52513;DHT22;38422;53.172;6.974;2023-02-28T01:24:19;4.90;99.90
52513;DHT22;38422;53.172;6.974;2023-02-28T01:26:45;4.90;99.90
52513;DHT22;38422;53.172;6.974;2023-02-28T01:29:10;4.90;99.90
52513;DHT22;38422;53.172;6.974;2023-02-28T01:31:36;4.90;99.90
52513;DHT22;38422;53.172;6.974;2023-02-28T01:34:02;4.90;99.90
52513;DHT22;38422;53.172;6.974;2023-02-28T01:36:28;4.90;99.90
52513;DHT22;38422;53.172;6.974;2023-02-28T01:38:54;4.90;99.90
52513;DHT22;38422;53.172;6.974;2023-02-28T01:41:26;4.90;99.90
52513;DHT22;38422;53.172;6.974;2023-02-28T01:44:03;4.90;99.90
52513;DHT22;38422;53.172;6.974;2023-02-28T01:46:34;4.90;99.90
52513;DHT22;38422;53.172;6.974;2023-02-28T01:49:11;4.90;99.90
52513;DHT22;38422;53.172;6.974;2023-02-28T01:54:08;4.80;99.90
52513;DHT22;38422;53.172;6.974;2023-02-28T01:56:42;4.80;99.90
52513;DHT22;38422;53.172;6.974;2023-02-28T01:59:09;4.80;99.90
52513;DHT22;38422;53.172;6.974;2023-02-28T02:01:35;4.80;99.90
52513;DHT22;38422;53.172;6.974;2023-02-28T02:04:02;4.80;99.90
52513;DHT22;38422;53.172;6.974;2023-02-28T02:06:40;4.80;99.90
52513;DHT22;38422;53.172;6.974;2023-02-28T02:09:07;4.80;99.90
52513;DHT22;38422;53.172;6.974;2023-02-28T02:11:33;4.80;99.90
52513;DHT22;38422;53.172;6.974;2023-02-28T02:14:43;4.70;99.90
52513;DHT22;38422;53.172;6.974;2023-02-28T02:17:41;4.70;99.90
52513;DHT22;38422;53.172;6.974;2023-02-28T02:31:26;4.60;99.90
52513;DHT22;38422;53.172;6.974;2023-02-28T02:39:53;4.50;99.90
52513;DHT22;38422;53.172;6.974;2023-02-28T02:42:39;4.50;99.90
52513;DHT22;38422;53.172;6.974;2023-02-28T02:45:18;4.50;99.90
52513;DHT22;38422;53.172;6.974;2023-02-28T02:47:45;4.50;99.90
52513;DHT22;38422;53.172;6.974;2023-02-28T02:50:19;4.40;99.90
52513;DHT22;38422;53.172;6.974;2023-02-28T02:52:49;4.40;99.90
52513;DHT22;38422;53.172;6.974;2023-02-28T02:55:17;4.30;99.90
52513;DHT22;38422;53.172;6.974;2023-02-28T02:58:01;4.30;99.90
52513;DHT22;38422;53.172;6.974;2023-02-28T03:00:35;4.30;99.90
52513;DHT22;38422;53.172;6.974;2023-02-28T03:03:03;4.30;99.90
52513;DHT22;38422;53.172;6.974;2023-02-28T03:05:39;4.20;99.90
52513;DHT22;38422;53.172;6.974;2023-02-28T03:08:06;4.20;99.90
52513;DHT22;38422;53.172;6.974;2023-02-28T03:10:42;4.20;99.90
52513;DHT22;38422;53.172;6.974;2023-02-28T03:27:25;4.20;99.90
52513;DHT22;38422;53.172;6.974;2023-02-28T03:30:05;4.20;99.90
52513;DHT22;38422;53.172;6.974;2023-02-28T03:32:42;4.20;99.90
52513;DHT22;38422;53.172;6.974;2023-02-28T03:35:19;4.20;99.90
52513;DHT22;38422;53.172;6.974;2023-02-28T03:37:52;4.20;99.90
52513;DHT22;38422;53.172;6.974;2023-02-28T03:40:25;4.20;99.90
52513;DHT22;38422;53.172;6.974;2023-02-28T03:42:57;4.10;99.90
52513;DHT22;38422;53.172;6.974;2023-02-28T03:45:28;4.10;99.90
52513;DHT22;38422;53.172;6.974;2023-02-28T03:48:02;4.10;99.90
52513;DHT22;38422;53.172;6.974;2023-02-28T03:53:29;4.10;99.90
52513;DHT22;38422;53.172;6.974;2023-02-28T03:59:21;4.10;99.90
52513;DHT22;38422;53.172;6.974;2023-02-28T04:01:42;4.10;99.90
52513;DHT22;38422;53.172;6.974;2023-02-28T04:04:09;4.10;99.90
52513;DHT22;38422;53.172;6.974;2023-02-28T04:06:35;4.10;99.90
52513;DHT22;38422;53.172;6.974;2023-02-28T04:09:03;4.10;99.90
52513;DHT22;38422;53.172;6.974;2023-02-28T04:11:41;4.10;99.90
52513;DHT22;38422;53.172;6.974;2023-02-28T04:14:08;4.10;99.90
52513;DHT22;38422;53.172;6.974;2023-02-28T04:16:35;4.10;99.90
52513;DHT22;38422;53.172;6.974;2023-02-28T04:19:06;4.00;99.90
52513;DHT22;38422;53.172;6.974;2023-02-28T04:21:34;4.00;99.90
52513;DHT22;38422;53.172;6.974;2023-02-28T04:24:00;4.00;99.90
52513;DHT22;38422;53.172;6.974;2023-02-28T04:26:34;4.00;99.90
52513;DHT22;38422;53.172;6.974;2023-02-28T04:29:01;4.00;99.90
52513;DHT22;38422;53.172;6.974;2023-02-28T04:31:26;4.00;99.90
52513;DHT22;38422;53.172;6.974;2023-02-28T04:33:52;4.00;99.90
52513;DHT22;38422;53.172;6.974;2023-02-28T04:36:18;3.90;99.90
52513;DHT22;38422;53.172;6.974;2023-02-28T04:38:44;3.90;99.90
52513;DHT22;38422;53.172;6.974;2023-02-28T04:41:11;3.90;99.90
52513;DHT22;38422;53.172;6.974;2023-02-28T04:43:37;3.90;99.90
52513;DHT22;38422;53.172;6.974;2023-02-28T04:46:05;3.90;99.90
52513;DHT22;38422;53.172;6.974;2023-02-28T04:48:33;3.90;99.90
52513;DHT22;38422;53.172;6.974;2023-02-28T04:51:08;3.90;99.90
52513;DHT22;38422;53.172;6.974;2023-02-28T04:53:34;3.80;99.90
52513;DHT22;38422;53.172;6.974;2023-02-28T04:56:00;3.80;99.90
52513;DHT22;38422;53.172;6.974;2023-02-28T04:58:26;3.80;99.90
52513;DHT22;38422;53.172;6.974;2023-02-28T05:00:54;3.80;99.90
52513;DHT22;38422;53.172;6.974;2023-02-28T05:03:26;3.80;99.90
52513;DHT22;38422;53.172;6.974;2023-02-28T05:05:51;3.80;99.90
52513;DHT22;38422;53.172;6.974;2023-02-28T05:08:17;3.70;99.90
52513;DHT22;38422;53.172;6.974;2023-02-28T05:10:43;3.70;99.90
52513;DHT22;38422;53.172;6.974;2023-02-28T05:13:11;3.70;99.90
52513;DHT22;38422;53.172;6.974;2023-02-28T05:15:37;3.70;99.90
52513;DHT22;38422;53.172;6.974;2023-02-28T05:18:03;3.70;99.90
52513;DHT22;38422;53.172;6.974;2023-02-28T05:20:29;3.70;99.90
52513;DHT22;38422;53.172;6.974;2023-02-28T05:22:54;3.70;99.90
52513;DHT22;38422;53.172;6.974;2023-02-28T05:25:21;3.70;99.90
52513;DHT22;38422;53.172;6.974;2023-02-28T05:27:48;3.70;99.90
52513;DHT22;38422;53.172;6.974;2023-02-28T05:30:13;3.70;99.90
52513;DHT22;38422;53.172;6.974;2023-02-28T05:32:40;3.70;99.90
52513;DHT22;38422;53.172;6.974;2023-02-28T05:35:10;3.70;99.90
52513;DHT22;38422;53.172;6.974;2023-02-28T05:37:37;3.60;99.90
52513;DHT22;38422;53.172;6.974;2023-02-28T05:40:04;3.60;99.90
52513;DHT22;38422;53.172;6.974;2023-02-28T05:42:36;3.60;99.90
52513;DHT22;38422;53.172;6.974;2023-02-28T05:45:02;3.60;99.90
52513;DHT22;38422;53.172;6.974;2023-02-28T05:47:27;3.60;99.90
52513;DHT22;38422;53.172;6.974;2023-02-28T05:49:53;3.60;99.90
52513;DHT22;38422;53.172;6.974;2023-02-28T05:52:19;3.70;99.90
52513;DHT22;38422;53.172;6.974;2023-02-28T05:54:46;3.70;99.90
52513;DHT22;38422;53.172;6.974;2023-02-28T05:57:12;3.70;99.90
52513;DHT22;38422;53.172;6.974;2023-02-28T05:59:37;3.70;99.90
52513;DHT22;38422;53.172;6.974;2023-02-28T06:02:06;3.70;99.90
52513;DHT22;38422;53.172;6.974;2023-02-28T06:04:36;3.70;99.90
52513;DHT22;38422;53.172;6.974;2023-02-28T06:07:01;3.70;99.90
52513;DHT22;38422;53.172;6.974;2023-02-28T06:09:27;3.70;99.90
52513;DHT22;38422;53.172;6.974;2023-02-28T06:11:53;3.80;99.90
52513;DHT22;38422;53.172;6.974;2023-02-28T06:14:20;3.80;99.90
52513;DHT22;38422;53.172;6.974;2023-02-28T06:16:46;3.70;99.90
52513;DHT22;38422;53.172;6.974;2023-02-28T06:19:12;3.70;99.90
52513;DHT22;38422;53.172;6.974;2023-02-28T06:21:38;3.70;99.90
52513;DHT22;38422;53.172;6.974;2023-02-28T06:24:05;3.70;99.90
52513;DHT22;38422;53.172;6.974;2023-02-28T06:26:32;3.70;99.90
52513;DHT22;38422;53.172;6.974;2023-02-28T06:28:57;3.60;99.90
52513;DHT22;38422;53.172;6.974;2023-02-28T06:31:23;3.60;99.90
52513;DHT22;38422;53.172;6.974;2023-02-28T06:33:51;3.60;99.90
52513;DHT22;38422;53.172;6.974;2023-02-28T06:36:16;3.60;99.90
52513;DHT22;38422;53.172;6.974;2023-02-28T06:38:43;3.60;99.90
52513;DHT22;38422;53.172;6.974;2023-02-28T06:41:09;3.70;99.90
52513;DHT22;38422;53.172;6.974;2023-02-28T06:43:41;3.70;99.90
52513;DHT22;38422;53.172;6.974;2023-02-28T06:46:08;3.70;99.90
52513;DHT22;38422;53.172;6.974;2023-02-28T06:48:34;3.70;99.90
52513;DHT22;38422;53.172;6.974;2023-02-28T06:51:09;3.70;99.90
52513;DHT22;38422;53.172;6.974;2023-02-28T06:53:35;3.80;99.90
52513;DHT22;38422;53.172;6.974;2023-02-28T06:56:06;3.80;99.90
52513;DHT22;38422;53.172;6.974;2023-02-28T06:58:32;3.80;99.90
52513;DHT22;38422;53.172;6.974;2023-02-28T07:00:58;3.80;99.90
52513;DHT22;38422;53.172;6.974;2023-02-28T07:03:24;3.90;99.90
52513;DHT22;38422;53.172;6.974;2023-02-28T07:05:49;3.90;99.90
52513;DHT22;38422;53.172;6.974;2023-02-28T07:08:16;3.90;99.90
52513;DHT22;38422;53.172;6.974;2023-02-28T07:10:42;3.90;99.90
52513;DHT22;38422;53.172;6.974;2023-02-28T07:13:08;3.90;99.90
52513;DHT22;38422;53.172;6.974;2023-02-28T07:15:35;3.90;99.90
52513;DHT22;38422;53.172;6.974;2023-02-28T07:18:01;3.90;99.90
52513;DHT22;38422;53.172;6.974;2023-02-28T07:20:26;4.00;99.90
52513;DHT22;38422;53.172;6.974;2023-02-28T07:22:52;4.00;99.90
52513;DHT22;38422;53.172;6.974;2023-02-28T07:25:30;4.00;99.90
52513;DHT22;38422;53.172;6.974;2023-02-28T07:27:56;4.00;99.90
52513;DHT22;38422;53.172;6.974;2023-02-28T07:30:24;4.00;99.90
52513;DHT22;38422;53.172;6.974;2023-02-28T07:32:50;4.00;99.90
52513;DHT22;38422;53.172;6.974;2023-02-28T07:35:15;4.00;99.90
52513;DHT22;38422;53.172;6.974;2023-02-28T07:37:42;4.00;99.90
52513;DHT22;38422;53.172;6.974;2023-02-28T07:40:10;4.00;99.90
52513;DHT22;38422;53.172;6.974;2023-02-28T07:42:40;4.10;99.90
52513;DHT22;38422;53.172;6.974;2023-02-28T07:45:07;4.10;99.90
52513;DHT22;38422;53.172;6.974;2023-02-28T07:47:33;4.10;99.90
52513;DHT22;38422;53.172;6.974;2023-02-28T07:49:59;4.20;99.90
52513;DHT22;38422;53.172;6.974;2023-02-28T07:52:25;4.20;99.90
52513;DHT22;38422;53.172;6.974;2023-02-28T07:54:51;4.30;99.90
52513;DHT22;38422;53.172;6.974;2023-02-28T07:57:17;4.30;99.90
52513;DHT22;38422;53.172;6.974;2023-02-28T07:59:43;4.30;99.90
52513;DHT22;38422;53.172;6.974;2023-02-28T08:02:16;4.40;99.90
52513;DHT22;38422;53.172;6.974;2023-02-28T08:04:42;4.30;99.90
52513;DHT22;38422;53.172;6.974;2023-02-28T08:07:08;4.40;99.90
52513;DHT22;38422;53.172;6.974;2023-02-28T08:09:34;4.40;99.90
52513;DHT22;38422;53.172;6.974;2023-02-28T08:12:00;4.40;99.90
52513;DHT22;38422;53.172;6.974;2023-02-28T08:14:26;4.40;99.90
52513;DHT22;38422;53.172;6.974;2023-02-28T08:16:51;4.40;99.90
52513;DHT22;38422;53.172;6.974;2023-02-28T08:19:17;4.40;99.90
52513;DHT22;38422;53.172;6.974;2023-02-28T08:21:43;4.30;99.90
52513;DHT22;38422;53.172;6.974;2023-02-28T08:24:08;4.20;99.90
52513;DHT22;38422;53.172;6.974;2023-02-28T08:26:34;4.20;99.90
52513;DHT22;38422;53.172;6.974;2023-02-28T08:29:00;4.10;99.90
52513;DHT22;38422;53.172;6.974;2023-02-28T08:31:25;4.10;99.90
52513;DHT22;38422;53.172;6.974;2023-02-28T08:33:51;4.10;99.90
52513;DHT22;38422;53.172;6.974;2023-02-28T08:36:19;4.00;99.90
52513;DHT22;38422;53.172;6.974;2023-02-28T08:38:45;4.00;99.90
52513;DHT22;38422;53.172;6.974;2023-02-28T08:41:12;4.00;99.90
52513;DHT22;38422;53.172;6.974;2023-02-28T08:43:39;4.00;99.90
52513;DHT22;38422;53.172;6.974;2023-02-28T08:46:05;4.00;99.90
52513;DHT22;38422;53.172;6.974;2023-02-28T08:48:34;4.10;99.90
52513;DHT22;38422;53.172;6.974;2023-02-28T08:51:03;4.20;99.90
52513;DHT22;38422;53.172;6.974;2023-02-28T08:53:29;4.10;99.90
52513;DHT22;38422;53.172;6.974;2023-02-28T08:56:07;4.20;99.90
52513;DHT22;38422;53.172;6.974;2023-02-28T08:58:33;4.20;99.90
52513;DHT22;38422;53.172;6.974;2023-02-28T09:00:59;4.20;99.90
52513;DHT22;38422;53.172;6.974;2023-02-28T09:03:25;4.30;99.90
52513;DHT22;38422;53.172;6.974;2023-02-28T09:06:00;4.40;99.90
52513;DHT22;38422;53.172;6.974;2023-02-28T09:08:29;4.50;99.90
52513;DHT22;38422;53.172;6.974;2023-02-28T09:10:58;4.60;99.90
52513;DHT22;38422;53.172;6.974;2023-02-28T09:13:25;4.60;99.90
52513;DHT22;38422;53.172;6.974;2023-02-28T09:15:52;4.70;99.90
52513;DHT22;38422;53.172;6.974;2023-02-28T09:18:17;4.60;99.90
52513;DHT22;38422;53.172;6.974;2023-02-28T09:20:43;4.60;99.90
52513;DHT22;38422;53.172;6.974;2023-02-28T09:23:10;4.60;99.90
52513;DHT22;38422;53.172;6.974;2023-02-28T09:25:36;4.60;99.90
52513;DHT22;38422;53.172;6.974;2023-02-28T09:28:02;4.60;99.90
52513;DHT22;38422;53.172;6.974;2023-02-28T09:30:29;4.70;99.90
52513;DHT22;38422;53.172;6.974;2023-02-28T09:32:55;4.70;99.90
52513;DHT22;38422;53.172;6.974;2023-02-28T09:35:22;4.80;99.90
52513;DHT22;38422;53.172;6.974;2023-02-28T09:37:48;4.90;99.90
52513;DHT22;38422;53.172;6.974;2023-02-28T09:40:15;4.90;99.90
52513;DHT22;38422;53.172;6.974;2023-02-28T09:42:46;4.90;99.90
52513;DHT22;38422;53.172;6.974;2023-02-28T09:45:34;5.00;99.90
52513;DHT22;38422;53.172;6.974;2023-02-28T09:48:10;5.20;99.90
52513;DHT22;38422;53.172;6.974;2023-02-28T09:50:43;5.40;99.90
52513;DHT22;38422;53.172;6.974;2023-02-28T09:53:29;5.50;99.90
52513;DHT22;38422;53.172;6.974;2023-02-28T09:56:09;5.70;99.90
52513;DHT22;38422;53.172;6.974;2023-02-28T09:58:47;5.70;99.90
52513;DHT22;38422;53.172;6.974;2023-02-28T10:06:51;6.00;99.90
52513;DHT22;38422;53.172;6.974;2023-02-28T10:09:30;6.30;99.90
52513;DHT22;38422;53.172;6.974;2023-02-28T10:12:02;6.60;99.90
52513;DHT22;38422;53.172;6.974;2023-02-28T10:14:30;6.70;99.90
52513;DHT22;38422;53.172;6.974;2023-02-28T10:17:12;6.80;99.90
52513;DHT22;38422;53.172;6.974;2023-02-28T10:22:37;6.50;99.90
52513;DHT22;38422;53.172;6.974;2023-02-28T10:25:30;6.50;99.90
52513;DHT22;38422;53.172;6.974;2023-02-28T10:30:32;7.00;99.90
52513;DHT22;38422;53.172;6.974;2023-02-28T10:32:58;7.40;99.90
52513;DHT22;38422;53.172;6.974;2023-02-28T10:35:25;7.70;99.90
52513;DHT22;38422;53.172;6.974;2023-02-28T10:37:58;8.10;99.90
52513;DHT22;38422;53.172;6.974;2023-02-28T10:48:29;9.50;99.90
52513;DHT22;38422;53.172;6.974;2023-02-28T10:50:55;9.70;99.90
52513;DHT22;38422;53.172;6.974;2023-02-28T10:58:34;9.90;99.90
52513;DHT22;38422;53.172;6.974;2023-02-28T11:01:19;10.20;99.90
52513;DHT22;38422;53.172;6.974;2023-02-28T11:03:46;10.40;99.90
52513;DHT22;38422;53.172;6.974;2023-02-28T11:06:26;10.60;99.90
52513;DHT22;38422;53.172;6.974;2023-02-28T11:09:14;10.90;99.90
52513;DHT22;38422;53.172;6.974;2023-02-28T11:11:44;11.00;99.90
52513;DHT22;38422;53.172;6.974;2023-02-28T11:14:23;10.90;99.90
52513;DHT22;38422;53.172;6.974;2023-02-28T11:16:51;10.90;99.90
52513;DHT22;38422;53.172;6.974;2023-02-28T11:19:40;11.00;99.90
52513;DHT22;38422;53.172;6.974;2023-02-28T11:22:06;11.20;99.90
52513;DHT22;38422;53.172;6.974;2023-02-28T11:24:40;11.20;99.90
52513;DHT22;38422;53.172;6.974;2023-02-28T11:29:56;11.40;99.90
52513;DHT22;38422;53.172;6.974;2023-02-28T11:32:24;11.30;99.90
52513;DHT22;38422;53.172;6.974;2023-02-28T11:37:35;10.90;99.90
52513;DHT22;38422;53.172;6.974;2023-02-28T11:40:01;10.70;99.90
52513;DHT22;38422;53.172;6.974;2023-02-28T11:42:38;10.50;99.90
52513;DHT22;38422;53.172;6.974;2023-02-28T11:48:20;10.20;99.90
52513;DHT22;38422;53.172;6.974;2023-02-28T11:56:36;10.30;99.90
52513;DHT22;38422;53.172;6.974;2023-02-28T11:59:15;10.30;99.90
52513;DHT22;38422;53.172;6.974;2023-02-28T12:05:24;10.20;99.90
52513;DHT22;38422;53.172;6.974;2023-02-28T12:11:28;10.50;99.90
52513;DHT22;38422;53.172;6.974;2023-02-28T12:20:01;11.20;99.90
52513;DHT22;38422;53.172;6.974;2023-02-28T12:22:25;11.00;99.90
52513;DHT22;38422;53.172;6.974;2023-02-28T12:27:44;10.60;99.90
52513;DHT22;38422;53.172;6.974;2023-02-28T12:30:50;10.40;99.90
52513;DHT22;38422;53.172;6.974;2023-02-28T12:33:22;10.40;99.90
52513;DHT22;38422;53.172;6.974;2023-02-28T12:35:54;10.20;99.90
52513;DHT22;38422;53.172;6.974;2023-02-28T12:38:28;10.10;99.90
52513;DHT22;38422;53.172;6.974;2023-02-28T12:41:04;10.10;99.90
52513;DHT22;38422;53.172;6.974;2023-02-28T12:43:37;10.10;99.90
52513;DHT22;38422;53.172;6.974;2023-02-28T12:46:29;9.90;99.90
52513;DHT22;38422;53.172;6.974;2023-02-28T12:48:57;9.70;99.90
52513;DHT22;38422;53.172;6.974;2023-02-28T12:51:25;9.50;99.90
52513;DHT22;38422;53.172;6.974;2023-02-28T12:59:13;9.30;99.90
52513;DHT22;38422;53.172;6.974;2023-02-28T13:10:09;10.80;99.90
52513;DHT22;38422;53.172;6.974;2023-02-28T13:12:35;11.30;99.90
52513;DHT22;38422;53.172;6.974;2023-02-28T13:15:26;11.70;99.90
52513;DHT22;38422;53.172;6.974;2023-02-28T13:17:56;11.90;99.90
52513;DHT22;38422;53.172;6.974;2023-02-28T13:20:35;12.20;99.90
52513;DHT22;38422;53.172;6.974;2023-02-28T13:23:01;12.30;99.90
52513;DHT22;38422;53.172;6.974;2023-02-28T13:28:00;12.70;99.90
52513;DHT22;38422;53.172;6.974;2023-02-28T13:34:04;12.80;98.40
52513;DHT22;38422;53.172;6.974;2023-02-28T13:36:29;12.90;98.50
52513;DHT22;38422;53.172;6.974;2023-02-28T13:39:00;12.80;98.40
52513;DHT22;38422;53.172;6.974;2023-02-28T14:00:15;13.20;95.10
52513;DHT22;38422;53.172;6.974;2023-02-28T14:05:45;13.50;94.10
52513;DHT22;38422;53.172;6.974;2023-02-28T14:08:18;13.60;95.30
52513;DHT22;38422;53.172;6.974;2023-02-28T14:10:49;13.70;94.70
52513;DHT22;38422;53.172;6.974;2023-02-28T14:13:44;13.90;94.80
52513;DHT22;38422;53.172;6.974;2023-02-28T14:16:25;13.90;93.20
52513;DHT22;38422;53.172;6.974;2023-02-28T14:18:58;13.90;93.10
52513;DHT22;38422;53.172;6.974;2023-02-28T14:21:35;13.60;93.00
52513;DHT22;38422;53.172;6.974;2023-02-28T16:08:59;11.60;91.10
52513;DHT22;38422;53.172;6.974;2023-02-28T16:11:25;11.20;93.60
52513;DHT22;38422;53.172;6.974;2023-02-28T16:13:51;11.00;94.40
52513;DHT22;38422;53.172;6.974;2023-02-28T16:16:20;10.80;94.90
52513;DHT22;38422;53.172;6.974;2023-02-28T16:18:46;10.60;95.40
52513;DHT22;38422;53.172;6.974;2023-02-28T16:21:12;10.40;95.90
52513;DHT22;38422;53.172;6.974;2023-02-28T16:23:38;10.30;96.40
52513;DHT22;38422;53.172;6.974;2023-02-28T16:26:04;10.20;96.90
52513;DHT22;38422;53.172;6.974;2023-02-28T16:28:33;10.10;97.40
52513;DHT22;38422;53.172;6.974;2023-02-28T16:31:01;10.00;97.70
52513;DHT22;38422;53.172;6.974;2023-02-28T16:33:31;10.00;98.10
52513;DHT22;38422;53.172;6.974;2023-02-28T16:35:56;9.80;98.40
52513;DHT22;38422;53.172;6.974;2023-02-28T16:38:22;9.70;98.80
52513;DHT22;38422;53.172;6.974;2023-02-28T16:40:50;9.70;99.20
52513;DHT22;38422;53.172;6.974;2023-02-28T16:43:23;9.60;99.90
52513;DHT22;38422;53.172;6.974;2023-02-28T16:45:55;9.40;99.90
52513;DHT22;38422;53.172;6.974;2023-02-28T16:48:21;9.40;99.90
52513;DHT22;38422;53.172;6.974;2023-02-28T16:50:47;9.30;99.90
52513;DHT22;38422;53.172;6.974;2023-02-28T16:53:13;9.20;99.90
52513;DHT22;38422;53.172;6.974;2023-02-28T16:55:39;9.10;99.90
52513;DHT22;38422;53.172;6.974;2023-02-28T16:58:04;9.10;99.90
52513;DHT22;38422;53.172;6.974;2023-02-28T17:00:31;9.00;99.90
52513;DHT22;38422;53.172;6.974;2023-02-28T17:02:58;9.00;99.90
52513;DHT22;38422;53.172;6.974;2023-02-28T17:05:25;9.00;99.90
52513;DHT22;38422;53.172;6.974;2023-02-28T17:07:52;8.90;99.90
52513;DHT22;38422;53.172;6.974;2023-02-28T17:10:24;8.80;99.90
52513;DHT22;38422;53.172;6.974;2023-02-28T17:12:51;8.80;99.90
52513;DHT22;38422;53.172;6.974;2023-02-28T17:15:18;8.80;99.90
52513;DHT22;38422;53.172;6.974;2023-02-28T17:17:44;8.60;99.90
52513;DHT22;38422;53.172;6.974;2023-02-28T17:20:19;8.60;99.90
52513;DHT22;38422;53.172;6.974;2023-02-28T17:22:48;8.50;99.90
52513;DHT22;38422;53.172;6.974;2023-02-28T17:25:14;8.40;99.90
52513;DHT22;38422;53.172;6.974;2023-02-28T17:27:40;8.30;99.90
52513;DHT22;38422;53.172;6.974;2023-02-28T17:30:26;8.30;99.90
52513;DHT22;38422;53.172;6.974;2023-02-28T17:32:55;8.20;99.90
52513;DHT22;38422;53.172;6.974;2023-02-28T17:35:22;8.10;99.90
52513;DHT22;38422;53.172;6.974;2023-02-28T17:37:48;8.00;99.90
52513;DHT22;38422;53.172;6.974;2023-02-28T17:40:16;8.00;99.90
52513;DHT22;38422;53.172;6.974;2023-02-28T17:42:43;7.90;99.90
52513;DHT22;38422;53.172;6.974;2023-02-28T17:45:10;7.90;99.90
52513;DHT22;38422;53.172;6.974;2023-02-28T17:47:37;7.80;99.90
52513;DHT22;38422;53.172;6.974;2023-02-28T17:54:00;7.60;99.90
52513;DHT22;38422;53.172;6.974;2023-02-28T17:56:41;7.50;99.90
52513;DHT22;38422;53.172;6.974;2023-02-28T17:59:09;7.50;99.90
52513;DHT22;38422;53.172;6.974;2023-02-28T18:01:35;7.40;99.90
52513;DHT22;38422;53.172;6.974;2023-02-28T18:04:17;7.40;99.90
52513;DHT22;38422;53.172;6.974;2023-02-28T18:06:45;7.30;99.90
52513;DHT22;38422;53.172;6.974;2023-02-28T18:09:19;7.20;99.90
52513;DHT22;38422;53.172;6.974;2023-02-28T18:11:47;7.20;99.90
52513;DHT22;38422;53.172;6.974;2023-02-28T18:14:17;7.20;99.90
52513;DHT22;38422;53.172;6.974;2023-02-28T18:16:44;7.10;99.90
52513;DHT22;38422;53.172;6.974;2023-02-28T18:19:11;7.10;99.90
52513;DHT22;38422;53.172;6.974;2023-02-28T18:21:44;7.10;99.90
52513;DHT22;38422;53.172;6.974;2023-02-28T18:24:11;7.10;99.90
52513;DHT22;38422;53.172;6.974;2023-02-28T18:26:38;7.00;99.90
52513;DHT22;38422;53.172;6.974;2023-02-28T18:29:05;7.00;99.90
52513;DHT22;38422;53.172;6.974;2023-02-28T18:31:31;7.00;99.90
52513;DHT22;38422;53.172;6.974;2023-02-28T18:33:57;7.00;99.90
52513;DHT22;38422;53.172;6.974;2023-02-28T18:36:23;7.00;99.90
52513;DHT22;38422;53.172;6.974;2023-02-28T18:38:49;6.90;99.90
52513;DHT22;38422;53.172;6.974;2023-02-28T18:41:16;6.90;99.90
52513;DHT22;38422;53.172;6.974;2023-02-28T18:43:42;6.80;99.90
52513;DHT22;38422;53.172;6.974;2023-02-28T18:46:11;6.80;99.90
52513;DHT22;38422;53.172;6.974;2023-02-28T18:48:37;6.80;99.90
52513;DHT22;38422;53.172;6.974;2023-02-28T18:51:12;6.80;99.90
52513;DHT22;38422;53.172;6.974;2023-02-28T18:53:39;6.70;99.90
52513;DHT22;38422;53.172;6.974;2023-02-28T18:56:06;6.60;99.90
52513;DHT22;38422;53.172;6.974;2023-02-28T18:58:32;6.60;99.90
52513;DHT22;38422;53.172;6.974;2023-02-28T19:00:59;6.60;99.90
52513;DHT22;38422;53.172;6.974;2023-02-28T19:03:35;6.60;99.90
52513;DHT22;38422;53.172;6.974;2023-02-28T19:09:41;6.60;99.90
52513;DHT22;38422;53.172;6.974;2023-02-28T19:12:44;6.60;99.90
52513;DHT22;38422;53.172;6.974;2023-02-28T19:30:22;6.50;99.90
52513;DHT22;38422;53.172;6.974;2023-02-28T19:33:23;6.50;99.90
52513;DHT22;38422;53.172;6.974;2023-02-28T19:35:49;6.50;99.90
52513;DHT22;38422;53.172;6.974;2023-02-28T19:38:15;6.50;99.90
52513;DHT22;38422;53.172;6.974;2023-02-28T19:40:41;6.50;99.90
52513;DHT22;38422;53.172;6.974;2023-02-28T19:43:06;6.40;99.90
52513;DHT22;38422;53.172;6.974;2023-02-28T19:45:33;6.40;99.90
52513;DHT22;38422;53.172;6.974;2023-02-28T19:47:59;6.40;99.90
52513;DHT22;38422;53.172;6.974;2023-02-28T19:50:25;6.30;99.90
52513;DHT22;38422;53.172;6.974;2023-02-28T19:52:51;6.30;99.90
52513;DHT22;38422;53.172;6.974;2023-02-28T19:55:17;6.30;99.90
52513;DHT22;38422;53.172;6.974;2023-02-28T19:57:43;6.30;99.90
52513;DHT22;38422;53.172;6.974;2023-02-28T20:00:11;6.30;99.90
52513;DHT22;38422;53.172;6.974;2023-02-28T20:02:39;6.30;99.90
52513;DHT22;38422;53.172;6.974;2023-02-28T20:05:05;6.30;99.90
52513;DHT22;38422;53.172;6.974;2023-02-28T20:07:31;6.20;99.90
52513;DHT22;38422;53.172;6.974;2023-02-28T20:09:57;6.20;99.90
52513;DHT22;38422;53.172;6.974;2023-02-28T20:12:23;6.20;99.90
52513;DHT22;38422;53.172;6.974;2023-02-28T20:14:51;6.20;99.90
52513;DHT22;38422;53.172;6.974;2023-02-28T20:17:17;6.20;99.90
52513;DHT22;38422;53.172;6.974;2023-02-28T20:19:44;6.10;99.90
52513;DHT22;38422;53.172;6.974;2023-02-28T20:22:09;6.00;99.90